Time;durP1;ratioP1;P1;durP2;ratioP2;P2;SDS_P1;SDS_P2;PMS_P1;PMS_P2;Temp;Humidity;BMP_temperature;BMP_pressure;BME280_temperature;BME280_humidity;BME280_pressure;Samples;Min_cycle;Max_cycle;Signal;HPM_P1;HPM_P2
2023/04/13 00:00:50;;;;;;;3.40;1.10;;;10.70;78.30;;;;;;5076969;28;20590;-63
2023/04/13 00:03:37;;;;;;;3.27;1.10;;;10.70;78.20;;;;;;5067581;28;20457;-63
2023/04/13 00:06:11;;;;;;;3.40;1.20;;;10.70;78.10;;;;;;5084866;28;20501;-63
2023/04/13 00:08:49;;;;;;;4.23;1.30;;;10.70;78.20;;;;;;5081710;28;20474;-63
2023/04/13 00:11:22;;;;;;;5.60;1.47;;;10.70;78.10;;;;;;5077075;28;20465;-63
2023/04/13 00:13:54;;;;;;;4.73;1.00;;;10.70;78.10;;;;;;5083071;28;20490;-63
2023/04/13 00:16:25;;;;;;;3.00;0.90;;;10.70;78.00;;;;;;5082489;28;20462;-63
2023/04/13 00:19:00;;;;;;;3.97;1.40;;;10.70;77.90;;;;;;5079984;28;20488;-63
2023/04/13 00:21:32;;;;;;;3.77;1.67;;;10.70;77.90;;;;;;5083281;28;20476;-63
2023/04/13 00:24:13;;;;;;;4.30;1.70;;;10.60;77.80;;;;;;5084368;28;21091;-63
2023/04/13 00:26:45;;;;;;;3.43;1.27;;;10.60;77.90;;;;;;5082546;28;20925;-63
2023/04/13 00:29:25;;;;;;;3.30;1.10;;;10.60;77.90;;;;;;5085634;28;20464;-63
2023/04/13 00:31:56;;;;;;;3.40;1.17;;;10.60;77.90;;;;;;5078490;28;20575;-63
2023/04/13 00:34:40;;;;;;;3.30;0.93;;;10.60;77.80;;;;;;5087714;28;20535;-63
2023/04/13 00:37:13;;;;;;;4.90;1.60;;;10.60;77.80;;;;;;5087848;28;20498;-63
2023/04/13 00:39:46;;;;;;;3.23;1.00;;;10.60;77.70;;;;;;5082837;28;20474;-63
2023/04/13 00:42:18;;;;;;;3.50;1.17;;;10.50;77.70;;;;;;5068085;28;20485;-63
2023/04/13 00:44:48;;;;;;;3.97;1.13;;;10.60;77.60;;;;;;5084719;28;20811;-63
2023/04/13 00:47:31;;;;;;;3.47;1.00;;;10.60;77.60;;;;;;5083039;28;20555;-63
2023/04/13 00:50:08;;;;;;;3.30;1.20;;;10.60;77.50;;;;;;5084968;28;20497;-63
2023/04/13 00:52:47;;;;;;;3.33;1.33;;;10.60;77.40;;;;;;5083911;28;20445;-63
2023/04/13 00:55:19;;;;;;;3.40;1.30;;;10.50;77.30;;;;;;5080354;28;20551;-63
2023/04/13 00:57:54;;;;;;;3.30;1.17;;;10.50;77.30;;;;;;5082522;28;20564;-63
2023/04/13 01:00:28;;;;;;;4.07;1.10;;;10.50;77.20;;;;;;5084382;28;20461;-63
2023/04/13 01:03:00;;;;;;;4.80;1.20;;;10.50;77.10;;;;;;5064820;28;20468;-64
2023/04/13 01:05:49;;;;;;;4.60;1.30;;;10.50;76.90;;;;;;5084652;28;20578;-63
2023/04/13 01:08:33;;;;;;;4.47;1.40;;;10.40;76.90;;;;;;5081268;28;20957;-63
2023/04/13 01:11:17;;;;;;;3.50;1.27;;;10.40;76.90;;;;;;5067136;28;20469;-63
2023/04/13 01:13:59;;;;;;;6.03;1.87;;;10.40;76.90;;;;;;5065410;28;20468;-63
2023/04/13 01:16:44;;;;;;;4.97;1.47;;;10.40;76.90;;;;;;5084482;28;20454;-63
2023/04/13 01:19:29;;;;;;;4.20;1.20;;;10.40;76.90;;;;;;5058991;28;20470;-63
2023/04/13 01:22:17;;;;;;;7.10;1.80;;;10.30;77.00;;;;;;5083845;28;20454;-63
2023/04/13 01:25:05;;;;;;;5.00;1.20;;;10.40;76.80;;;;;;5068840;28;20470;-63
2023/04/13 01:27:50;;;;;;;4.40;1.67;;;10.40;76.80;;;;;;5068432;28;20473;-63
2023/04/13 01:30:31;;;;;;;9.40;1.90;;;10.40;76.80;;;;;;5085576;28;20544;-63
2023/04/13 01:33:08;;;;;;;3.90;1.57;;;10.40;76.90;;;;;;5079585;28;20465;-63
2023/04/13 01:35:40;;;;;;;5.60;1.70;;;10.40;76.90;;;;;;5066914;28;20461;-63
2023/04/13 01:38:24;;;;;;;3.57;1.40;;;10.40;76.90;;;;;;5081600;28;20991;-63
2023/04/13 01:41:12;;;;;;;5.33;1.33;;;10.50;76.90;;;;;;5080889;28;20962;-63
2023/04/13 01:43:50;;;;;;;6.03;1.70;;;10.50;76.90;;;;;;5086134;28;20463;-63
2023/04/13 01:46:29;;;;;;;3.40;1.53;;;10.50;76.90;;;;;;5076378;28;20457;-63
2023/04/13 01:49:29;;;;;;;6.00;1.70;;;10.50;76.80;;;;;;5053150;28;20475;-63
2023/04/13 01:52:31;;;;;;;3.77;1.33;;;10.40;76.70;;;;;;5078179;28;20550;-63
2023/04/13 01:55:11;;;;;;;3.30;1.30;;;10.40;76.60;;;;;;5064613;28;20457;-63
2023/04/13 01:57:48;;;;;;;4.13;1.40;;;10.30;76.80;;;;;;5080897;28;20465;-63
2023/04/13 02:00:36;;;;;;;8.37;1.90;;;10.30;76.90;;;;;;5065459;28;21198;-63
2023/04/13 02:03:21;;;;;;;4.87;1.30;;;10.20;76.80;;;;;;5066826;28;20481;-63
2023/04/13 02:05:59;;;;;;;5.83;1.60;;;10.20;76.80;;;;;;5065301;28;20454;-63
2023/04/13 02:08:39;;;;;;;5.30;1.43;;;10.20;76.70;;;;;;5069861;28;20465;-63
2023/04/13 02:11:13;;;;;;;5.20;1.40;;;10.10;76.80;;;;;;5072311;28;20461;-63
2023/04/13 02:13:56;;;;;;;5.60;1.40;;;10.10;76.70;;;;;;5079813;28;20485;-63
2023/04/13 02:16:43;;;;;;;5.03;1.37;;;10.10;76.60;;;;;;5083062;28;20480;-63
2023/04/13 02:19:20;;;;;;;4.60;1.30;;;10.10;76.70;;;;;;5080184;28;20501;-63
2023/04/13 02:21:57;;;;;;;5.93;1.30;;;10.10;76.80;;;;;;5082812;28;20460;-63
2023/04/13 02:24:31;;;;;;;3.50;1.10;;;10.10;76.80;;;;;;5084694;28;20522;-63
2023/04/13 02:27:09;;;;;;;3.60;1.20;;;10.10;76.70;;;;;;5061959;28;20968;-63
2023/04/13 02:29:41;;;;;;;4.30;1.40;;;10.10;76.70;;;;;;5083231;28;20457;-63
2023/04/13 02:32:20;;;;;;;4.07;1.50;;;10.10;76.70;;;;;;5080652;28;20480;-63
2023/04/13 02:34:52;;;;;;;5.50;1.20;;;10.10;76.60;;;;;;5066839;28;20858;-63
2023/04/13 02:37:23;;;;;;;6.20;1.30;;;10.10;76.60;;;;;;5080227;28;20462;-62
2023/04/13 02:39:52;;;;;;;3.57;0.97;;;10.10;76.60;;;;;;5064454;28;20469;-63
2023/04/13 02:42:33;;;;;;;3.67;1.30;;;10.10;76.40;;;;;;5062689;28;20968;-63
2023/04/13 02:45:11;;;;;;;3.70;1.43;;;10.00;76.30;;;;;;5084007;28;20461;-63
2023/04/13 02:47:51;;;;;;;4.80;1.17;;;10.00;76.30;;;;;;5084000;28;20489;-63
2023/04/13 02:50:20;;;;;;;7.03;1.50;;;9.90;76.30;;;;;;5078635;28;20604;-63
2023/04/13 02:53:08;;;;;;;3.87;1.23;;;9.90;76.30;;;;;;5078032;28;20492;-63
2023/04/13 02:55:46;;;;;;;3.70;1.10;;;9.90;76.30;;;;;;5080778;28;20823;-63
2023/04/13 02:58:19;;;;;;;3.57;1.20;;;9.90;76.30;;;;;;5068705;28;20551;-63
2023/04/13 03:00:58;;;;;;;4.30;1.40;;;9.90;76.30;;;;;;5067805;28;20464;-63
2023/04/13 03:03:46;;;;;;;4.70;1.27;;;9.80;76.20;;;;;;5080632;28;20495;-63
2023/04/13 03:06:25;;;;;;;5.53;1.43;;;9.80;76.00;;;;;;5084656;28;20579;-63
2023/04/13 03:09:01;;;;;;;3.70;1.70;;;9.80;76.10;;;;;;5080036;28;20814;-63
2023/04/13 03:11:55;;;;;;;3.80;1.50;;;9.80;76.00;;;;;;5080947;28;20521;-63
2023/04/13 03:14:33;;;;;;;5.37;1.30;;;9.70;76.00;;;;;;5068831;28;20551;-62
2023/04/13 03:17:11;;;;;;;4.97;1.20;;;9.70;76.00;;;;;;5064834;28;20454;-63
2023/04/13 03:19:50;;;;;;;3.83;1.33;;;9.70;75.90;;;;;;5083275;28;20485;-63
2023/04/13 03:22:29;;;;;;;6.33;1.40;;;9.70;75.80;;;;;;5060898;28;20468;-62
2023/04/13 03:25:07;;;;;;;3.10;1.10;;;9.70;75.80;;;;;;5080686;28;20510;-63
2023/04/13 03:27:41;;;;;;;5.93;1.60;;;9.70;75.70;;;;;;5082651;28;20465;-63
2023/04/13 03:30:17;;;;;;;3.77;1.10;;;9.60;75.60;;;;;;5076511;28;20834;-63
2023/04/13 03:33:03;;;;;;;4.13;1.30;;;9.60;75.60;;;;;;5082150;28;20452;-63
2023/04/13 03:35:49;;;;;;;3.90;1.00;;;9.60;75.50;;;;;;5067321;28;20469;-63
2023/04/13 03:38:35;;;;;;;4.97;1.10;;;9.60;75.50;;;;;;5080624;28;20467;-63
2023/04/13 03:41:07;;;;;;;6.90;1.60;;;9.60;75.40;;;;;;5083160;28;20488;-63
2023/04/13 03:43:46;;;;;;;3.20;1.03;;;9.50;75.30;;;;;;5067849;28;20461;-63
2023/04/13 03:46:21;;;;;;;4.80;1.20;;;9.50;75.20;;;;;;5067877;28;20551;-63
2023/04/13 03:48:54;;;;;;;3.77;1.03;;;9.40;75.30;;;;;;5080049;28;20451;-63
2023/04/13 03:51:40;;;;;;;5.13;1.30;;;9.50;75.30;;;;;;5066227;28;20464;-63
2023/04/13 03:54:15;;;;;;;5.23;1.40;;;9.40;75.30;;;;;;5078023;28;20446;-63
2023/04/13 03:56:47;;;;;;;3.90;1.20;;;9.50;75.20;;;;;;5066326;28;20464;-63
2023/04/13 03:59:33;;;;;;;4.33;1.50;;;9.40;75.20;;;;;;5082944;28;20459;-63
2023/04/13 04:02:09;;;;;;;7.30;1.70;;;9.40;75.20;;;;;;5066104;28;20469;-63
2023/04/13 04:04:52;;;;;;;6.43;1.30;;;9.40;75.20;;;;;;5065881;28;20861;-63
2023/04/13 04:07:37;;;;;;;5.10;1.13;;;9.40;75.20;;;;;;5064131;28;21272;-63
2023/04/13 04:10:16;;;;;;;4.53;1.57;;;9.50;75.20;;;;;;5083612;28;20457;-63
2023/04/13 04:12:57;;;;;;;4.67;1.23;;;9.50;75.00;;;;;;5065147;28;20850;-63
2023/04/13 04:15:33;;;;;;;7.40;1.20;;;9.50;75.00;;;;;;5081571;28;20496;-63
2023/04/13 04:18:18;;;;;;;5.90;0.97;;;9.50;74.90;;;;;;5069406;28;20458;-63
2023/04/13 04:20:58;;;;;;;6.53;1.10;;;9.50;74.80;;;;;;5083999;28;20956;-63
2023/04/13 04:23:41;;;;;;;4.07;1.30;;;9.50;74.80;;;;;;5080705;28;21027;-63
2023/04/13 04:26:14;;;;;;;4.10;1.10;;;9.50;74.80;;;;;;5070327;28;20457;-63
2023/04/13 04:29:01;;;;;;;3.10;1.00;;;9.60;74.80;;;;;;5064483;28;20514;-63
2023/04/13 04:31:42;;;;;;;4.90;1.30;;;9.50;74.70;;;;;;5079965;28;20538;-63
2023/04/13 04:34:20;;;;;;;6.23;1.53;;;9.50;74.60;;;;;;5085159;28;20612;-63
2023/04/13 04:36:56;;;;;;;4.17;1.70;;;9.50;74.70;;;;;;5071525;28;20523;-62
2023/04/13 04:39:52;;;;;;;5.87;1.23;;;9.50;74.70;;;;;;5084283;28;20469;-63
2023/04/13 04:42:30;;;;;;;4.80;1.30;;;9.60;74.60;;;;;;5068688;28;20480;-63
2023/04/13 04:45:04;;;;;;;4.77;1.30;;;9.50;74.50;;;;;;5085360;28;20850;-63
2023/04/13 04:47:42;;;;;;;4.90;1.30;;;9.50;74.50;;;;;;5082847;28;20469;-63
2023/04/13 04:50:22;;;;;;;7.10;1.43;;;9.50;74.40;;;;;;5067356;28;21073;-63
2023/04/13 04:53:01;;;;;;;8.23;1.37;;;9.50;74.40;;;;;;5081267;28;20461;-63
2023/04/13 04:55:43;;;;;;;8.00;1.33;;;9.40;74.50;;;;;;5062592;28;20464;-62
2023/04/13 04:58:39;;;;;;;7.23;1.47;;;9.50;74.40;;;;;;5082062;28;20476;-63
2023/04/13 05:01:21;;;;;;;3.50;0.97;;;9.50;74.40;;;;;;5083275;28;20489;-62
2023/04/13 05:04:02;;;;;;;4.80;1.13;;;9.50;74.30;;;;;;5083828;28;20924;-63
2023/04/13 05:06:40;;;;;;;5.30;1.40;;;9.60;74.40;;;;;;5086192;28;20955;-63
2023/04/13 05:09:19;;;;;;;8.97;1.40;;;9.70;75.30;;;;;;5085432;28;20555;-63
2023/04/13 05:12:09;;;;;;;6.30;1.47;;;10.20;76.10;;;;;;5080245;28;20461;-63
2023/04/13 05:14:47;;;;;;;5.17;1.30;;;10.90;75.10;;;;;;5067182;28;20803;-63
2023/04/13 05:17:29;;;;;;;11.40;2.07;;;11.10;73.70;;;;;;5084772;28;20489;-63
2023/04/13 05:20:03;;;;;;;5.43;1.20;;;11.10;72.90;;;;;;5083715;28;20574;-63
2023/04/13 05:22:58;;;;;;;6.87;1.50;;;11.00;72.60;;;;;;5080108;28;20870;-63
2023/04/13 05:28:36;;;;;;;5.00;1.73;;;10.50;72.40;;;;;;5088919;28;20470;-63
2023/04/13 05:31:09;;;;;;;7.17;1.30;;;10.20;72.60;;;;;;5068466;28;20571;-63
2023/04/13 05:33:46;;;;;;;9.03;2.00;;;10.10;72.80;;;;;;5082126;28;20468;-63
2023/04/13 05:36:31;;;;;;;10.97;1.67;;;10.00;73.00;;;;;;5082377;28;20488;-63
2023/04/13 05:39:16;;;;;;;9.43;1.50;;;9.90;73.10;;;;;;5080226;28;20454;-63
2023/04/13 05:41:56;;;;;;;9.73;1.27;;;9.90;73.20;;;;;;5063301;28;20469;-63
2023/04/13 05:44:46;;;;;;;4.60;1.13;;;9.90;73.30;;;;;;5064673;28;20833;-63
2023/04/13 05:47:24;;;;;;;6.20;1.27;;;10.00;73.20;;;;;;5085091;28;20593;-62
2023/04/13 05:50:06;;;;;;;6.80;1.47;;;9.90;73.20;;;;;;5083475;28;20500;-62
2023/04/13 05:52:43;;;;;;;6.83;1.80;;;9.90;73.20;;;;;;5063994;28;20461;-62
2023/04/13 05:55:23;;;;;;;9.10;1.83;;;9.80;73.30;;;;;;5083801;28;20482;-62
2023/04/13 05:58:03;;;;;;;4.73;1.10;;;9.90;73.40;;;;;;5066787;28;20521;-62
2023/04/13 06:00:41;;;;;;;11.10;1.50;;;9.90;73.40;;;;;;5062823;28;20472;-63
2023/04/13 06:03:28;;;;;;;9.97;1.93;;;9.90;73.40;;;;;;5080803;28;20521;-62
2023/04/13 06:06:09;;;;;;;8.53;1.43;;;9.90;73.30;;;;;;5066208;28;20933;-62
2023/04/13 06:08:40;;;;;;;5.80;1.60;;;10.00;73.30;;;;;;5065067;28;20944;-63
2023/04/13 06:11:12;;;;;;;7.07;1.73;;;10.00;73.40;;;;;;5081122;28;20462;-63
2023/04/13 06:13:56;;;;;;;12.37;1.50;;;10.00;73.20;;;;;;5080635;28;20457;-63
2023/04/13 06:16:37;;;;;;;9.80;1.77;;;10.00;73.30;;;;;;5068671;28;20473;-63
2023/04/13 06:19:14;;;;;;;7.63;2.40;;;10.00;73.20;;;;;;5084183;28;20457;-63
2023/04/13 06:21:55;;;;;;;5.90;1.60;;;10.00;73.20;;;;;;5081949;28;20484;-63
2023/04/13 06:24:36;;;;;;;9.37;2.20;;;10.00;73.20;;;;;;5065662;28;20511;-63
2023/04/13 06:27:13;;;;;;;7.40;2.30;;;10.00;73.20;;;;;;5083368;28;20549;-63
2023/04/13 06:29:50;;;;;;;8.23;2.03;;;10.00;73.20;;;;;;5082781;28;20474;-63
2023/04/13 06:32:28;;;;;;;7.43;2.20;;;10.00;73.20;;;;;;5065388;28;20546;-62
2023/04/13 06:35:02;;;;;;;7.67;2.10;;;10.10;73.10;;;;;;5078284;28;20518;-63
2023/04/13 06:37:54;;;;;;;7.93;2.10;;;10.10;73.10;;;;;;5069661;28;20465;-63
2023/04/13 06:40:33;;;;;;;11.50;1.60;;;10.00;73.10;;;;;;5079266;28;20481;-63
2023/04/13 06:43:12;;;;;;;11.93;1.90;;;10.10;73.20;;;;;;5080961;28;20960;-62
2023/04/13 06:46:16;;;;;;;8.87;1.77;;;10.10;73.20;;;;;;5080041;28;20479;-62
2023/04/13 06:49:01;;;;;;;12.40;2.47;;;10.20;73.10;;;;;;5063505;28;20549;-62
2023/04/13 06:51:39;;;;;;;11.23;2.30;;;10.20;73.10;;;;;;5077936;28;20466;-63
2023/04/13 06:54:13;;;;;;;6.57;1.67;;;10.10;73.20;;;;;;5068388;28;20859;-62
2023/04/13 06:56:51;;;;;;;9.40;2.03;;;10.20;73.30;;;;;;5081387;28;20777;-65
2023/04/13 06:59:38;;;;;;;9.30;2.97;;;10.20;73.30;;;;;;5076969;28;20904;-63
2023/04/13 07:02:17;;;;;;;9.60;2.30;;;10.40;73.20;;;;;;5073154;28;20480;-63
2023/04/13 07:05:03;;;;;;;7.63;1.70;;;10.40;73.00;;;;;;5077610;28;20468;-64
2023/04/13 07:07:39;;;;;;;8.20;1.90;;;10.50;72.90;;;;;;5077347;28;20452;-63
2023/04/13 07:13:06;;;;;;;12.87;2.23;;;10.50;72.90;;;;;;5077709;28;20457;-63
2023/04/13 07:15:43;;;;;;;11.27;2.60;;;10.50;73.00;;;;;;5082390;28;20460;-63
2023/04/13 07:18:20;;;;;;;11.50;1.93;;;10.60;72.90;;;;;;5083156;28;20449;-63
2023/04/13 07:21:02;;;;;;;7.30;2.07;;;10.70;72.70;;;;;;5068541;28;20480;-63
2023/04/13 07:23:43;;;;;;;10.30;1.90;;;10.70;72.80;;;;;;5081645;28;20448;-63
2023/04/13 07:26:17;;;;;;;5.83;2.23;;;10.60;72.80;;;;;;5081863;28;20464;-63
2023/04/13 07:28:53;;;;;;;9.47;2.30;;;10.60;72.80;;;;;;5068756;28;20567;-64
2023/04/13 07:31:36;;;;;;;11.07;2.47;;;10.60;72.80;;;;;;5082128;28;20462;-64
2023/04/13 07:34:17;;;;;;;5.90;2.00;;;10.70;72.80;;;;;;5080466;28;20513;-64
2023/04/13 07:36:57;;;;;;;10.73;2.57;;;10.80;72.70;;;;;;5068061;28;20457;-64
2023/04/13 07:39:37;;;;;;;10.90;2.13;;;10.80;72.70;;;;;;5067334;28;20460;-65
2023/04/13 07:42:14;;;;;;;12.03;3.47;;;10.80;72.70;;;;;;5079645;28;20496;-65
2023/04/13 07:44:54;;;;;;;7.50;1.50;;;10.90;72.80;;;;;;5086723;28;20793;-65
2023/04/13 07:47:26;;;;;;;10.43;2.10;;;11.00;72.80;;;;;;5085427;28;20477;-64
2023/04/13 07:50:05;;;;;;;6.03;2.07;;;11.00;72.70;;;;;;5083297;28;20491;-64
2023/04/13 07:52:51;;;;;;;7.87;2.30;;;11.10;72.50;;;;;;5066239;28;20458;-64
2023/04/13 07:55:28;;;;;;;9.40;2.63;;;11.10;72.50;;;;;;5063741;28;20471;-64
2023/04/13 07:58:22;;;;;;;10.90;2.40;;;11.10;72.20;;;;;;5083638;28;20467;-64
2023/04/13 08:00:58;;;;;;;9.50;2.30;;;11.00;72.10;;;;;;5074595;28;20558;-64
2023/04/13 08:03:33;;;;;;;13.93;2.20;;;11.00;72.20;;;;;;5066557;28;20563;-64
2023/04/13 08:06:22;;;;;;;8.00;2.80;;;11.00;72.10;;;;;;5063839;28;20808;-64
2023/04/13 08:09:08;;;;;;;10.03;1.80;;;11.00;72.00;;;;;;5063267;28;20453;-63
2023/04/13 08:11:40;;;;;;;13.57;2.70;;;11.10;71.80;;;;;;5065665;28;20465;-63
2023/04/13 08:14:20;;;;;;;11.27;2.50;;;11.00;71.80;;;;;;5065914;28;20464;-63
2023/04/13 08:19:39;;;;;;;7.97;2.23;;;11.00;71.70;;;;;;5064331;28;20456;-65
2023/04/13 08:22:15;;;;;;;10.50;2.30;;;11.00;71.70;;;;;;5063562;28;20474;-62
2023/04/13 08:25:01;;;;;;;170.03;11.37;;;11.00;71.60;;;;;;5082849;28;20880;-63
2023/04/13 08:27:34;;;;;;;14.17;3.60;;;11.00;71.50;;;;;;5080697;28;20550;-63
2023/04/13 08:30:16;;;;;;;10.10;2.67;;;10.90;71.40;;;;;;5077021;28;20551;-63
2023/04/13 08:33:06;;;;;;;15.33;2.50;;;10.90;71.40;;;;;;5059596;28;20998;-63
2023/04/13 08:35:38;;;;;;;10.33;2.20;;;10.90;71.40;;;;;;5082515;28;21296;-63
2023/04/13 08:38:17;;;;;;;7.23;1.60;;;10.90;71.40;;;;;;5066807;28;20481;-63
2023/04/13 08:40:52;;;;;;;14.87;2.70;;;10.90;71.30;;;;;;5082319;28;20485;-63
2023/04/13 08:43:43;;;;;;;10.87;2.20;;;10.90;71.30;;;;;;5077485;28;20479;-63
2023/04/13 08:46:24;;;;;;;14.53;2.53;;;10.90;71.50;;;;;;5084995;28;20462;-63
2023/04/13 08:49:06;;;;;;;7.10;1.83;;;11.00;71.60;;;;;;5084161;28;20514;-63
2023/04/13 08:52:00;;;;;;;6.33;1.37;;;11.10;71.50;;;;;;5062111;28;20455;-63
2023/04/13 08:54:34;;;;;;;4.10;1.30;;;11.10;71.20;;;;;;5080724;28;20845;-63
2023/04/13 08:57:16;;;;;;;6.10;1.47;;;11.20;71.20;;;;;;5083799;28;20536;-63
2023/04/13 08:59:49;;;;;;;9.27;1.63;;;11.10;71.10;;;;;;5070014;28;20946;-63
2023/04/13 09:02:24;;;;;;;7.10;1.70;;;11.10;71.00;;;;;;5083268;28;20586;-63
2023/04/13 09:05:14;;;;;;;4.97;1.40;;;11.10;71.10;;;;;;5081924;28;20480;-63
2023/04/13 09:08:12;;;;;;;6.43;1.70;;;11.10;71.10;;;;;;5084110;28;20485;-63
2023/04/13 09:11:15;;;;;;;7.60;1.67;;;11.00;71.20;;;;;;5066004;28;20508;-63
2023/04/13 09:14:00;;;;;;;7.60;1.90;;;11.10;71.20;;;;;;5082915;28;20789;-63
2023/04/13 09:16:40;;;;;;;5.90;1.47;;;11.00;71.20;;;;;;5068846;28;20939;-63
2023/04/13 09:19:36;;;;;;;6.17;1.70;;;11.00;71.20;;;;;;5064244;28;20568;-64
2023/04/13 09:22:16;;;;;;;8.20;1.70;;;10.90;71.20;;;;;;5067932;28;20476;-63
2023/04/13 09:24:48;;;;;;;4.80;1.43;;;10.90;71.30;;;;;;5080968;28;20522;-63
2023/04/13 09:27:25;;;;;;;5.93;1.57;;;10.90;71.30;;;;;;5083397;28;20506;-63
2023/04/13 09:32:44;;;;;;;5.00;1.13;;;10.90;71.40;;;;;;5082573;28;20456;-63
2023/04/13 09:35:31;;;;;;;4.23;1.40;;;10.90;71.40;;;;;;5079866;28;20794;-63
2023/04/13 09:38:07;;;;;;;5.00;1.60;;;10.90;71.40;;;;;;5080379;28;20459;-63
2023/04/13 09:40:53;;;;;;;6.90;1.53;;;10.90;71.50;;;;;;5084039;28;20527;-63
2023/04/13 09:43:40;;;;;;;4.27;1.27;;;11.00;71.40;;;;;;5083634;28;20566;-63
2023/04/13 09:46:26;;;;;;;5.90;1.70;;;11.00;71.50;;;;;;5083560;28;20453;-63
2023/04/13 09:49:00;;;;;;;5.50;1.60;;;10.90;71.50;;;;;;5078954;28;20486;-63
2023/04/13 09:51:41;;;;;;;4.80;1.23;;;10.90;71.40;;;;;;5077160;28;21001;-64
2023/04/13 09:54:19;;;;;;;5.07;1.40;;;10.90;71.40;;;;;;5079618;28;20484;-63
2023/04/13 09:56:55;;;;;;;6.83;1.80;;;10.90;71.50;;;;;;5080474;28;20522;-63
2023/04/13 09:59:30;;;;;;;4.43;1.23;;;10.80;71.60;;;;;;5082059;28;20471;-63
2023/04/13 10:02:13;;;;;;;5.30;1.60;;;10.80;71.70;;;;;;5075186;28;20486;-64
2023/04/13 10:04:44;;;;;;;7.30;1.50;;;10.80;71.70;;;;;;5082540;28;20464;-63
2023/04/13 10:07:16;;;;;;;8.17;1.83;;;10.80;71.80;;;;;;5080790;28;20445;-63
2023/04/13 10:09:56;;;;;;;4.97;1.30;;;10.90;71.90;;;;;;5062824;28;20489;-64
2023/04/13 10:12:34;;;;;;;5.93;1.30;;;10.90;71.80;;;;;;5073277;28;20461;-63
2023/04/13 10:15:22;;;;;;;7.27;1.70;;;10.90;71.80;;;;;;5082392;28;20549;-64
2023/04/13 10:18:13;;;;;;;6.20;1.47;;;10.90;71.80;;;;;;5082085;28;20458;-64
2023/04/13 10:20:48;;;;;;;5.87;1.50;;;10.90;71.70;;;;;;5080232;28;20455;-64
2023/04/13 10:23:26;;;;;;;3.70;1.23;;;10.90;71.80;;;;;;5076947;28;20516;-63
2023/04/13 10:25:59;;;;;;;4.50;1.40;;;10.90;71.90;;;;;;5080910;28;20474;-64
2023/04/13 10:28:42;;;;;;;5.57;1.47;;;11.00;72.00;;;;;;5083937;28;20525;-65
2023/04/13 10:31:20;;;;;;;4.47;1.40;;;11.00;72.00;;;;;;5080682;28;20474;-64
2023/04/13 10:33:54;;;;;;;7.13;1.80;;;11.10;72.00;;;;;;5079210;28;20482;-64
2023/04/13 10:36:38;;;;;;;5.33;1.40;;;11.10;72.20;;;;;;5073227;28;20450;-64
2023/04/13 10:39:10;;;;;;;6.70;1.50;;;11.20;72.10;;;;;;5063015;28;20462;-64
2023/04/13 10:41:43;;;;;;;7.90;1.73;;;11.30;72.10;;;;;;5032353;28;20481;-63
2023/04/13 10:44:15;;;;;;;5.80;1.70;;;11.40;72.10;;;;;;5083150;28;20481;-64
2023/04/13 10:46:54;;;;;;;5.30;1.50;;;11.40;72.00;;;;;;5081429;28;20545;-63
2023/04/13 10:49:46;;;;;;;5.30;1.43;;;11.40;72.00;;;;;;5078215;28;20447;-64
2023/04/13 10:52:27;;;;;;;6.93;1.57;;;11.40;72.00;;;;;;5078520;28;20939;-64
2023/04/13 10:55:01;;;;;;;5.30;1.93;;;11.40;72.10;;;;;;5082430;28;20461;-63
2023/04/13 10:57:44;;;;;;;5.07;1.60;;;11.50;72.10;;;;;;5079932;28;20467;-64
2023/04/13 11:00:22;;;;;;;7.07;1.63;;;11.50;72.00;;;;;;5077871;28;20458;-64
2023/04/13 11:03:13;;;;;;;4.00;1.20;;;11.60;71.90;;;;;;5076436;28;20482;-64
2023/04/13 11:05:58;;;;;;;4.30;1.50;;;11.60;71.90;;;;;;5078978;28;20465;-64
2023/04/13 11:08:33;;;;;;;6.93;2.17;;;11.70;71.90;;;;;;5076210;28;20456;-64
2023/04/13 11:11:12;;;;;;;5.57;1.20;;;11.80;71.80;;;;;;5077889;28;20449;-64
2023/04/13 11:13:47;;;;;;;5.57;1.60;;;11.80;72.00;;;;;;5078738;28;20443;-64
2023/04/13 11:16:25;;;;;;;4.70;1.30;;;11.90;72.10;;;;;;5063861;28;20553;-64
2023/04/13 11:19:04;;;;;;;5.27;1.67;;;12.00;72.00;;;;;;5077740;28;20457;-64
2023/04/13 11:21:36;;;;;;;6.70;1.67;;;12.00;71.90;;;;;;5076902;28;20458;-64
2023/04/13 11:24:09;;;;;;;5.53;0.93;;;12.10;71.60;;;;;;5075050;28;20474;-64
2023/04/13 11:26:38;;;;;;;5.50;1.60;;;12.10;71.60;;;;;;5078853;28;20446;-64
2023/04/13 11:29:23;;;;;;;8.77;1.77;;;12.10;71.60;;;;;;5079847;28;20473;-64
2023/04/13 11:31:57;;;;;;;4.90;1.70;;;12.20;71.30;;;;;;5072628;28;20478;-64
2023/04/13 11:34:36;;;;;;;5.87;1.30;;;12.20;71.30;;;;;;5078054;28;20564;-64
2023/04/13 11:37:10;;;;;;;11.60;2.10;;;12.30;71.40;;;;;;5074678;28;20449;-64
2023/04/13 11:39:40;;;;;;;6.07;1.60;;;12.30;71.20;;;;;;5077490;28;20455;-64
2023/04/13 11:42:19;;;;;;;6.63;1.80;;;12.30;71.30;;;;;;5077316;28;20502;-64
2023/04/13 11:44:53;;;;;;;11.10;2.13;;;12.40;71.20;;;;;;5082946;28;20836;-64
2023/04/13 11:47:26;;;;;;;10.13;1.80;;;12.50;71.00;;;;;;5079714;28;20448;-64
2023/04/13 11:50:00;;;;;;;4.10;1.40;;;12.50;70.90;;;;;;5077403;28;20467;-64
2023/04/13 11:52:34;;;;;;;4.63;1.60;;;12.50;70.70;;;;;;5079549;28;20978;-64
2023/04/13 11:55:08;;;;;;;6.87;1.90;;;12.50;70.60;;;;;;5075797;28;20458;-64
2023/04/13 11:57:54;;;;;;;12.73;1.90;;;12.40;70.60;;;;;;5077036;28;20513;-64
2023/04/13 12:00:27;;;;;;;6.50;1.80;;;12.50;70.40;;;;;;5082115;28;20452;-64
2023/04/13 12:02:56;;;;;;;6.97;1.57;;;12.40;70.40;;;;;;5078442;28;20490;-64
2023/04/13 12:05:31;;;;;;;5.37;1.90;;;12.40;70.60;;;;;;5084742;28;20468;-64
2023/04/13 12:08:23;;;;;;;5.80;1.60;;;12.40;70.90;;;;;;5082838;28;20444;-64
2023/04/13 12:10:58;;;;;;;5.57;1.47;;;12.50;70.90;;;;;;5079565;28;20446;-64
2023/04/13 12:13:48;;;;;;;6.10;1.73;;;12.50;70.90;;;;;;5082146;28;20477;-64
2023/04/13 12:16:40;;;;;;;5.27;1.50;;;12.60;70.60;;;;;;5087720;28;20444;-64
2023/04/13 12:19:21;;;;;;;5.53;1.30;;;12.60;70.60;;;;;;5083297;28;20474;-64
2023/04/13 12:22:06;;;;;;;5.67;2.03;;;12.60;70.30;;;;;;5080335;28;20475;-64
2023/04/13 12:24:45;;;;;;;6.70;1.90;;;12.60;70.40;;;;;;5080769;28;20502;-64
2023/04/13 12:27:20;;;;;;;6.10;2.10;;;12.70;70.50;;;;;;5084099;28;20456;-65
2023/04/13 12:30:03;;;;;;;6.60;1.63;;;12.70;70.70;;;;;;5087857;28;20934;-64
2023/04/13 12:32:34;;;;;;;6.23;1.50;;;12.80;70.70;;;;;;5079794;28;20507;-64
2023/04/13 12:35:18;;;;;;;4.33;1.50;;;12.90;70.30;;;;;;5081947;28;20551;-64
2023/04/13 12:37:51;;;;;;;6.17;1.70;;;12.90;70.20;;;;;;5081637;28;20457;-64
2023/04/13 12:40:34;;;;;;;5.90;1.83;;;13.00;70.20;;;;;;5078366;28;20463;-64
2023/04/13 12:43:06;;;;;;;5.90;1.60;;;13.00;69.90;;;;;;5078320;28;20892;-64
2023/04/13 12:45:46;;;;;;;5.57;1.37;;;13.00;69.70;;;;;;5086864;28;21006;-64
2023/04/13 12:48:25;;;;;;;4.83;1.30;;;13.00;69.70;;;;;;5081201;28;20471;-64
2023/04/13 12:50:54;;;;;;;7.03;1.43;;;12.90;69.60;;;;;;5084522;28;20454;-64
2023/04/13 12:53:26;;;;;;;6.03;1.20;;;12.80;69.70;;;;;;5084554;28;20486;-64
2023/04/13 12:55:59;;;;;;;4.70;0.90;;;12.80;69.70;;;;;;5081313;28;20670;-64
2023/04/13 12:58:34;;;;;;;4.70;1.30;;;12.80;69.80;;;;;;5078220;28;20469;-65
2023/04/13 13:01:14;;;;;;;5.30;1.30;;;12.80;69.70;;;;;;5060445;28;20518;-64
2023/04/13 13:03:50;;;;;;;6.03;1.73;;;12.70;69.70;;;;;;5078662;28;20480;-63
2023/04/13 13:06:29;;;;;;;5.77;1.40;;;12.70;69.70;;;;;;5081929;28;20459;-64
2023/04/13 13:09:04;;;;;;;4.70;1.20;;;12.70;69.70;;;;;;5076603;28;20467;-64
2023/04/13 13:11:39;;;;;;;5.07;1.30;;;12.70;69.60;;;;;;5080187;28;20655;-63
2023/04/13 13:14:22;;;;;;;6.40;1.27;;;12.70;69.40;;;;;;5082094;28;20491;-63
2023/04/13 13:16:56;;;;;;;4.70;1.27;;;12.70;69.50;;;;;;5083176;28;20462;-63
2023/04/13 13:19:28;;;;;;;6.10;1.60;;;12.70;69.60;;;;;;5084273;28;20539;-64
2023/04/13 13:22:04;;;;;;;5.47;1.50;;;12.80;69.40;;;;;;5079481;28;20569;-64
2023/04/13 13:24:37;;;;;;;6.03;1.50;;;12.80;69.40;;;;;;5082087;28;20539;-63
2023/04/13 13:27:19;;;;;;;4.10;1.17;;;12.70;69.30;;;;;;5082921;28;20950;-63
2023/04/13 13:30:02;;;;;;;5.27;1.37;;;12.70;69.30;;;;;;5079641;28;20458;-63
2023/04/13 13:32:35;;;;;;;3.87;0.90;;;12.70;69.30;;;;;;5080174;28;20499;-63
2023/04/13 13:35:09;;;;;;;4.77;1.30;;;12.70;69.20;;;;;;5079974;28;20464;-64
2023/04/13 13:37:40;;;;;;;8.30;1.70;;;12.80;69.20;;;;;;5083542;28;20457;-63
2023/04/13 13:40:21;;;;;;;5.73;1.47;;;12.80;69.10;;;;;;5076942;28;20448;-65
2023/04/13 13:42:55;;;;;;;5.07;0.90;;;12.90;69.10;;;;;;5076340;28;20523;-63
2023/04/13 13:45:36;;;;;;;3.93;1.07;;;13.00;69.10;;;;;;5084245;28;20559;-63
2023/04/13 13:48:07;;;;;;;6.23;1.60;;;13.00;69.10;;;;;;5062032;28;20461;-63
2023/04/13 13:50:56;;;;;;;4.20;1.10;;;13.00;69.10;;;;;;5083324;28;20459;-63
2023/04/13 13:53:28;;;;;;;3.90;1.10;;;13.10;69.00;;;;;;5080248;28;20537;-64
2023/04/13 13:56:10;;;;;;;6.87;1.20;;;13.10;68.80;;;;;;5081319;28;20453;-63
2023/04/13 13:58:46;;;;;;;5.70;1.47;;;13.10;68.30;;;;;;5079615;28;20498;-63
2023/04/13 14:01:24;;;;;;;6.60;1.10;;;13.00;68.70;;;;;;5079815;28;20505;-63